Time;durP1;ratioP1;P1;durP2;ratioP2;P2;SDS_P1;SDS_P2;PMS_P1;PMS_P2;Temp;Humidity;BMP_temperature;BMP_pressure;BME280_temperature;BME280_humidity;BME280_pressure;Samples;Min_cycle;Max_cycle;Signal;HPM_P1;HPM_P2
2022/08/11 00:02:02;;;;;;;8.00;7.30;;;16.90;99.90;;;;;;5066861;28;20041;-65
2022/08/11 00:04:35;;;;;;;8.43;7.15;;;16.90;99.90;;;;;;5069654;28;20045;-66
2022/08/11 00:07:03;;;;;;;9.23;7.85;;;16.80;99.90;;;;;;5038159;28;20547;-66
2022/08/11 00:09:36;;;;;;;7.95;7.15;;;16.80;99.90;;;;;;5048777;28;20442;-66
2022/08/11 00:12:02;;;;;;;7.75;6.97;;;16.80;99.90;;;;;;5071639;28;20059;-66
2022/08/11 00:14:31;;;;;;;8.52;7.07;;;16.70;99.90;;;;;;5046114;28;20036;-66
2022/08/11 00:17:02;;;;;;;8.55;7.80;;;16.70;99.90;;;;;;5071690;28;20047;-66
2022/08/11 00:19:41;;;;;;;9.52;7.78;;;16.70;99.90;;;;;;5030245;28;20032;-65
2022/08/11 00:22:08;;;;;;;9.95;8.95;;;16.70;99.90;;;;;;5050997;28;20037;-65
2022/08/11 00:24:36;;;;;;;9.45;8.60;;;16.60;99.90;;;;;;5073650;28;20707;-66
2022/08/11 00:27:03;;;;;;;10.48;8.70;;;16.50;99.90;;;;;;5067021;28;20164;-66
2022/08/11 00:29:28;;;;;;;9.70;8.73;;;16.50;99.90;;;;;;5054885;28;20047;-66
2022/08/11 00:31:56;;;;;;;10.38;9.38;;;16.50;99.90;;;;;;5054011;28;20056;-66
2022/08/11 00:34:27;;;;;;;9.73;8.90;;;16.50;99.90;;;;;;5064347;28;20043;-66
2022/08/11 00:37:07;;;;;;;10.57;9.68;;;16.50;99.90;;;;;;5045866;28;20052;-66
2022/08/11 00:39:40;;;;;;;11.20;9.68;;;16.50;99.90;;;;;;5044660;28;20060;-65
2022/08/11 00:42:22;;;;;;;11.10;8.93;;;16.40;99.90;;;;;;5053134;28;20068;-67
2022/08/11 00:45:07;;;;;;;9.52;7.60;;;;;;;;;;5072594;28;20037;-66
2022/08/11 00:47:33;;;;;;;9.20;8.45;;;16.40;99.90;;;;;;5069472;28;20051;-66
2022/08/11 00:50:23;;;;;;;9.35;8.45;;;16.40;99.90;;;;;;5047546;28;20045;-67
2022/08/11 00:53:04;;;;;;;9.45;8.55;;;16.40;99.90;;;;;;5036879;28;20071;-66
2022/08/11 00:56:16;;;;;;;8.63;7.88;;;16.50;99.90;;;;;;5050700;28;20131;-66
2022/08/11 00:59:19;;;;;;;10.88;9.77;;;16.40;99.90;;;;;;5064966;28;20037;-66
2022/08/11 01:01:59;;;;;;;10.57;9.48;;;16.40;99.90;;;;;;5047991;28;20040;-66
2022/08/11 01:04:30;;;;;;;11.75;10.50;;;16.30;99.90;;;;;;5052479;28;20052;-66
2022/08/11 01:07:20;;;;;;;12.02;10.85;;;16.30;99.90;;;;;;5068935;28;20064;-66
2022/08/11 01:09:51;;;;;;;11.50;10.32;;;16.30;99.90;;;;;;5071078;28;20048;-66
2022/08/11 01:12:38;;;;;;;16.25;11.48;;;16.20;99.90;;;;;;5046152;28;20029;-66
2022/08/11 01:15:04;;;;;;;12.02;9.95;;;16.30;99.90;;;;;;5036919;28;20048;-66
2022/08/11 01:17:48;;;;;;;12.48;11.23;;;16.30;99.90;;;;;;5039081;28;20036;-65
2022/08/11 01:20:29;;;;;;;11.57;10.43;;;16.20;99.90;;;;;;5054015;28;20055;-66
2022/08/11 01:23:36;;;;;;;12.13;10.68;;;16.20;99.90;;;;;;5038610;28;20120;-66
2022/08/11 01:26:29;;;;;;;10.73;9.73;;;16.20;99.90;;;;;;5024831;28;20048;-66
2022/08/11 01:29:08;;;;;;;11.73;10.52;;;16.30;99.90;;;;;;5051951;28;20044;-66
2022/08/11 01:32:11;;;;;;;12.57;11.35;;;16.20;99.90;;;;;;5027517;28;20127;-65
2022/08/11 01:35:09;;;;;;;9.90;8.95;;;16.20;99.90;;;;;;5070309;28;20051;-66
2022/08/11 01:37:58;;;;;;;10.00;9.00;;;16.20;99.90;;;;;;5053834;28;20060;-67
2022/08/11 01:40:46;;;;;;;14.05;12.60;;;16.20;99.90;;;;;;5052393;28;21073;-66
2022/08/11 01:50:13;;;;;;;12.27;11.18;;;16.10;99.90;;;;;;5043626;28;20041;-65
2022/08/11 01:53:07;;;;;;;16.10;13.55;;;16.10;99.90;;;;;;5070105;28;20036;-67
2022/08/11 01:56:14;;;;;;;14.07;11.98;;;16.10;99.90;;;;;;5060202;28;20044;-66
2022/08/11 01:59:02;;;;;;;12.90;11.57;;;16.10;99.90;;;;;;5064108;28;20049;-66
2022/08/11 02:01:58;;;;;;;14.68;12.40;;;16.10;99.90;;;;;;5069225;28;20076;-67
2022/08/11 02:04:42;;;;;;;13.02;11.73;;;16.10;99.90;;;;;;5051059;28;20104;-66
2022/08/11 02:07:32;;;;;;;11.10;10.13;;;16.00;99.90;;;;;;5066915;28;20040;-65
2022/08/11 02:13:14;;;;;;;10.52;9.48;;;16.10;99.90;;;;;;5049932;28;20045;-67
2022/08/11 02:15:50;;;;;;;10.32;9.20;;;16.10;99.90;;;;;;5057331;28;20047;-66
2022/08/11 02:18:22;;;;;;;12.15;10.35;;;16.10;99.90;;;;;;5063528;28;20078;-66
2022/08/11 02:23:54;;;;;;;10.40;9.43;;;16.00;99.90;;;;;;5054479;28;20040;-66
2022/08/11 02:26:30;;;;;;;11.82;10.27;;;16.00;99.90;;;;;;5058164;28;20435;-67
2022/08/11 02:29:19;;;;;;;11.45;10.40;;;16.00;99.90;;;;;;5038088;28;20082;-66
2022/08/11 02:34:58;;;;;;;11.38;10.27;;;16.00;99.90;;;;;;5070566;28;20049;-66
2022/08/11 02:37:32;;;;;;;11.95;10.18;;;16.00;99.90;;;;;;5036104;28;20047;-65
2022/08/11 02:39:58;;;;;;;10.85;9.80;;;16.00;99.90;;;;;;5066854;28;20049;-66
2022/08/11 02:42:45;;;;;;;10.75;9.77;;;15.90;99.90;;;;;;5070759;28;20044;-66
2022/08/11 02:45:11;;;;;;;11.48;10.18;;;15.90;99.90;;;;;;5049480;28;20048;-66
2022/08/11 02:51:08;;;;;;;12.43;11.10;;;15.90;99.90;;;;;;5066584;28;20072;-66
2022/08/11 02:54:05;;;;;;;11.52;10.43;;;15.80;99.90;;;;;;5036272;28;20511;-66
2022/08/11 02:56:34;;;;;;;11.20;10.18;;;15.80;99.90;;;;;;5046451;28;20370;-66
2022/08/11 03:02:10;;;;;;;11.23;10.15;;;15.70;99.90;;;;;;5047338;28;20060;-65
2022/08/11 03:05:03;;;;;;;9.88;8.98;;;15.70;99.90;;;;;;5042471;28;20048;-66
2022/08/11 03:07:39;;;;;;;9.88;8.95;;;15.70;99.90;;;;;;5035303;28;20406;-66
2022/08/11 03:10:27;;;;;;;11.38;10.38;;;15.70;99.90;;;;;;5067485;28;20053;-66
2022/08/11 03:19:25;;;;;;;13.00;11.77;;;15.50;99.90;;;;;;5064881;28;20044;-65
2022/08/11 03:22:31;;;;;;;10.57;9.60;;;15.50;99.90;;;;;;5071920;28;20524;-65
2022/08/11 03:25:33;;;;;;;10.52;9.52;;;15.50;99.90;;;;;;4997635;28;20060;-66
2022/08/11 03:28:33;;;;;;;10.85;9.75;;;15.60;99.90;;;;;;5045982;28;20048;-66
2022/08/11 03:31:23;;;;;;;9.95;8.95;;;15.50;99.90;;;;;;5029319;28;20048;-65
2022/08/11 03:34:01;;;;;;;10.40;9.50;;;15.50;99.90;;;;;;5073848;28;20074;-66
2022/08/11 03:37:04;;;;;;;11.73;10.68;;;15.50;99.90;;;;;;5047989;28;20083;-65
2022/08/11 03:39:58;;;;;;;12.25;11.10;;;15.50;99.90;;;;;;5036035;28;20036;-66
2022/08/11 03:42:41;;;;;;;15.13;13.60;;;15.40;99.90;;;;;;5034785;28;20049;-66
2022/08/11 03:45:24;;;;;;;18.80;16.85;;;15.40;99.90;;;;;;5037893;28;20032;-66
2022/08/11 03:48:12;;;;;;;14.50;12.98;;;15.40;99.90;;;;;;5038228;28;20045;-66
2022/08/11 03:50:46;;;;;;;13.20;11.90;;;15.40;99.90;;;;;;5043768;28;20507;-66
2022/08/11 03:53:48;;;;;;;12.32;11.15;;;15.30;99.90;;;;;;5070648;28;20079;-66
2022/08/11 03:56:32;;;;;;;11.35;10.35;;;15.30;99.90;;;;;;5034775;28;20049;-66
2022/08/11 03:59:16;;;;;;;12.68;11.43;;;15.40;99.90;;;;;;5041906;28;20070;-66
2022/08/11 04:02:03;;;;;;;14.25;12.93;;;15.30;99.90;;;;;;5060630;28;20037;-66
2022/08/11 04:04:47;;;;;;;12.98;11.77;;;15.30;99.90;;;;;;5050217;28;20048;-66
2022/08/11 04:07:37;;;;;;;17.65;14.07;;;15.40;99.90;;;;;;5023641;28;20048;-66
2022/08/11 04:10:30;;;;;;;13.45;12.15;;;15.30;99.90;;;;;;5059431;28;20028;-66
2022/08/11 04:13:40;;;;;;;31.00;13.00;;;15.30;99.90;;;;;;5066969;28;20072;-66
2022/08/11 04:16:42;;;;;;;33.08;14.80;;;15.30;99.90;;;;;;5065427;28;20033;-66
2022/08/11 04:19:20;;;;;;;16.40;14.68;;;15.20;99.90;;;;;;5061629;28;20044;-65
2022/08/11 04:22:07;;;;;;;15.38;13.85;;;15.20;99.90;;;;;;5065638;28;20047;-65
2022/08/11 04:24:56;;;;;;;16.65;15.05;;;15.20;99.90;;;;;;5033099;28;20055;-66
2022/08/11 04:27:44;;;;;;;22.05;16.00;;;15.20;99.90;;;;;;5041254;28;20037;-65
2022/08/11 04:30:49;;;;;;;50.47;15.82;;;15.10;99.90;;;;;;5040633;28;20045;-65
2022/08/11 04:33:51;;;;;;;32.25;15.35;;;15.10;99.90;;;;;;5037360;28;20048;-65
2022/08/11 04:39:51;;;;;;;14.70;13.35;;;15.10;99.90;;;;;;5055792;28;19928;-66
2022/08/11 04:43:19;;;;;;;16.52;14.93;;;15.20;99.90;;;;;;5073020;28;20521;-65
2022/08/11 04:46:17;;;;;;;16.67;14.75;;;15.20;99.90;;;;;;5041475;28;20490;-66
2022/08/11 05:07:25;;;;;;;13.85;12.45;;;15.50;99.90;;;;;;5016440;28;20041;-66
2022/08/11 05:10:28;;;;;;;14.68;13.13;;;15.60;99.90;;;;;;5039149;28;20041;-66
2022/08/11 05:35:48;;;;;;;18.52;16.52;;;16.10;99.90;;;;;;5026542;28;20132;-66
2022/08/11 05:58:02;;;;;;;14.32;12.90;;;17.60;99.90;;;;;;5042857;28;20041;-66
2022/08/11 06:00:28;;;;;;;12.80;11.68;;;;;;;;;;5038062;28;20039;-66
2022/08/11 06:03:02;;;;;;;13.05;11.48;;;21.10;99.90;;;;;;5046901;28;20082;-66
2022/08/11 06:05:37;;;;;;;11.60;10.50;;;22.60;99.90;;;;;;5020127;28;20045;-67
2022/08/11 06:08:07;;;;;;;12.15;10.98;;;;;;;;;;5015136;28;20108;-67
2022/08/11 06:10:38;;;;;;;10.73;9.73;;;24.50;99.90;;;;;;5049225;28;20037;-67
2022/08/11 06:13:06;;;;;;;11.38;10.07;;;24.90;99.60;;;;;;5027420;28;20044;-67
2022/08/11 06:15:42;;;;;;;10.23;9.32;;;25.30;99.90;;;;;;5016004;28;20163;-67
2022/08/11 06:18:10;;;;;;;10.05;9.05;;;26.30;99.90;;;;;;5014475;28;20053;-67
2022/08/11 06:20:45;;;;;;;9.77;8.38;;;;;;;;;;5028179;28;20045;-67
2022/08/11 06:23:13;;;;;;;9.10;8.20;;;26.60;94.30;;;;;;5033730;28;20041;-67
2022/08/11 06:25:39;;;;;;;8.27;7.47;;;27.00;96.50;;;;;;5040030;28;20059;-67
2022/08/11 06:28:07;;;;;;;8.80;7.95;;;27.70;96.00;;;;;;5051512;28;20037;-67
2022/08/11 06:30:41;;;;;;;9.23;8.30;;;28.00;94.20;;;;;;5030532;28;20475;-67
2022/08/11 06:33:11;;;;;;;8.75;7.25;;;28.60;92.90;;;;;;5031535;28;20560;-67
2022/08/11 06:35:55;;;;;;;7.70;7.00;;;28.90;93.10;;;;;;5033129;28;20045;-67
2022/08/11 06:38:25;;;;;;;8.10;7.32;;;;;;;;;;5015076;28;20386;-67
2022/08/11 06:43:51;;;;;;;7.55;6.95;;;28.70;90.50;;;;;;5049882;28;20041;-67
2022/08/11 06:46:28;;;;;;;6.90;6.25;;;29.10;89.10;;;;;;5050279;28;20117;-67
2022/08/11 06:48:55;;;;;;;6.88;6.18;;;29.40;89.50;;;;;;5051417;28;20037;-67
2022/08/11 06:51:21;;;;;;;6.95;6.45;;;30.20;88.80;;;;;;5039062;28;20115;-67
2022/08/11 06:54:02;;;;;;;7.45;6.65;;;29.00;89.40;;;;;;5001097;28;20080;-67
2022/08/11 07:02:24;;;;;;;7.13;5.72;;;29.60;86.70;;;;;;5017231;28;20475;-67
2022/08/11 07:05:07;;;;;;;6.03;5.53;;;29.80;85.20;;;;;;5019318;28;20072;-67
2022/08/11 07:16:49;;;;;;;5.70;5.20;;;31.20;80.70;;;;;;5028315;28;20041;-67
2022/08/11 07:30:29;;;;;;;;;;;30.80;77.20;;;;;;5019921;28;20041;-67
2022/08/11 07:32:58;;;;;;;5.72;4.72;;;31.20;79.10;;;;;;5023728;28;19929;-67
2022/08/11 07:35:31;;;;;;;5.50;4.53;;;31.30;79.20;;;;;;5011222;28;20046;-67
2022/08/11 07:38:01;;;;;;;6.30;3.75;;;32.20;75.30;;;;;;5023303;28;20434;-67
2022/08/11 07:40:27;;;;;;;5.30;4.13;;;33.00;74.50;;;;;;5029238;28;20052;-67
2022/08/11 07:42:56;;;;;;;4.72;4.05;;;33.50;72.50;;;;;;5030597;28;20040;-67
2022/08/11 07:53:40;;;;;;;5.43;2.92;;;;;;;;;;5028123;28;20061;-67
2022/08/11 07:56:06;;;;;;;4.72;3.08;;;33.80;68.40;;;;;;5051258;28;20051;-67
2022/08/11 08:17:58;;;;;;;6.25;2.22;;;28.20;75.10;;;;;;5037865;28;20053;-67
2022/08/11 08:20:27;;;;;;;2.40;2.20;;;27.60;76.60;;;;;;5034899;28;20044;-66
2022/08/11 08:22:57;;;;;;;3.80;2.20;;;26.90;77.00;;;;;;5045345;28;20049;-67
2022/08/11 08:25:30;;;;;;;3.58;2.40;;;26.90;78.70;;;;;;5038478;28;20405;-67
2022/08/11 08:27:58;;;;;;;5.07;2.10;;;26.50;78.80;;;;;;5017466;28;20048;-66
2022/08/11 08:33:17;;;;;;;3.03;1.98;;;26.10;79.50;;;;;;5054269;28;20471;-66
2022/08/11 08:35:44;;;;;;;5.57;1.90;;;26.00;81.60;;;;;;5030580;28;20045;-66
2022/08/11 08:38:10;;;;;;;3.88;1.80;;;26.10;79.90;;;;;;5034856;28;20068;-66
2022/08/11 08:40:39;;;;;;;5.32;1.98;;;26.20;80.20;;;;;;5021437;28;20492;-66
2022/08/11 08:43:09;;;;;;;1.80;1.70;;;26.00;80.50;;;;;;5024116;28;20044;-66
2022/08/11 08:45:36;;;;;;;2.80;1.75;;;26.30;80.70;;;;;;5036874;28;20037;-66
2022/08/11 08:48:14;;;;;;;2.40;1.85;;;26.50;78.70;;;;;;5031134;28;20115;-66
2022/08/11 08:53:39;;;;;;;4.13;2.05;;;26.70;79.20;;;;;;5027598;28;20486;-66
2022/08/11 08:56:08;;;;;;;6.68;1.83;;;26.80;78.80;;;;;;5037974;28;20092;-66
2022/08/11 08:58:37;;;;;;;3.60;1.67;;;26.90;79.30;;;;;;5030638;28;20102;-66
2022/08/11 09:01:03;;;;;;;2.30;1.58;;;26.80;78.80;;;;;;5042359;28;20032;-66
2022/08/11 09:03:31;;;;;;;3.08;1.40;;;27.00;79.10;;;;;;5026576;28;20039;-66
2022/08/11 09:05:57;;;;;;;5.90;1.60;;;27.00;77.80;;;;;;5043540;28;20541;-66
2022/08/11 09:08:23;;;;;;;5.15;1.60;;;27.00;77.20;;;;;;5026229;28;20729;-66
2022/08/11 09:11:48;;;;;;;4.10;1.75;;;27.00;77.00;;;;;;5037017;28;20098;-66
2022/08/11 09:13:36;;;;;;;2.92;1.70;;;27.00;78.10;;;;;;5047749;28;20474;-67
2022/08/11 09:16:05;;;;;;;6.20;1.70;;;26.90;77.10;;;;;;5027492;28;20048;-66
2022/08/11 09:18:31;;;;;;;5.65;1.60;;;26.90;77.10;;;;;;5046960;28;20803;-66
2022/08/11 09:20:57;;;;;;;4.63;1.77;;;27.00;77.20;;;;;;5045357;28;20037;-66
2022/08/11 09:28:54;;;;;;;3.83;1.40;;;27.40;74.20;;;;;;5039437;28;20057;-66
2022/08/11 09:31:21;;;;;;;5.22;1.88;;;27.30;75.50;;;;;;5020767;28;20048;-66
2022/08/11 09:33:50;;;;;;;2.58;1.58;;;27.60;73.30;;;;;;5026183;28;20055;-66
2022/08/11 09:41:49;;;;;;;3.28;1.50;;;27.70;72.00;;;;;;5030767;28;20131;-66
2022/08/11 09:47:00;;;;;;;1.77;1.23;;;28.00;72.60;;;;;;5040177;28;20092;-66
2022/08/11 09:49:27;;;;;;;1.92;1.20;;;28.10;71.60;;;;;;5021872;28;20056;-66
2022/08/11 09:51:53;;;;;;;1.90;1.50;;;28.30;72.70;;;;;;5023035;28;20057;-66
2022/08/11 09:54:22;;;;;;;4.28;1.58;;;28.30;71.30;;;;;;5004879;28;20554;-66
2022/08/11 09:59:32;;;;;;;2.85;1.60;;;28.40;71.10;;;;;;5025150;28;20494;-66
2022/08/11 10:02:00;;;;;;;6.40;1.90;;;28.50;69.40;;;;;;5036692;28;20080;-66
2022/08/11 10:04:33;;;;;;;3.10;1.30;;;28.60;70.70;;;;;;5021219;28;20045;-66
2022/08/11 10:07:04;;;;;;;2.80;1.38;;;28.70;71.70;;;;;;5032623;28;20067;-66
2022/08/11 10:09:40;;;;;;;2.40;1.40;;;28.70;71.20;;;;;;5021244;28;20086;-66
2022/08/11 10:12:11;;;;;;;2.08;1.20;;;28.60;67.50;;;;;;5028336;28;20076;-66
2022/08/11 10:17:30;;;;;;;3.33;1.60;;;28.90;69.10;;;;;;5044040;28;20049;-66
2022/08/11 10:19:57;;;;;;;4.68;1.58;;;29.10;69.00;;;;;;5028838;28;20041;-66
2022/08/11 10:27:58;;;;;;;1.75;1.30;;;29.10;68.10;;;;;;5017084;28;20398;-67
2022/08/11 10:36:00;;;;;;;2.25;1.33;;;29.20;67.30;;;;;;5039491;28;20044;-65
2022/08/11 10:38:27;;;;;;;5.97;1.40;;;29.20;68.50;;;;;;5034413;28;20127;-65
2022/08/11 10:43:40;;;;;;;4.88;1.35;;;29.10;64.70;;;;;;5037296;28;20033;-65
2022/08/11 10:49:14;;;;;;;3.55;1.38;;;29.50;67.20;;;;;;4967912;28;20042;-65
2022/08/11 10:59:57;;;;;;;2.42;1.38;;;29.00;62.40;;;;;;4976451;28;20116;-66
2022/08/11 11:02:25;;;;;;;3.08;1.00;;;29.20;66.00;;;;;;5004785;28;20066;-66
2022/08/11 11:05:26;;;;;;;2.78;1.30;;;29.40;61.90;;;;;;5034096;28;20485;-65
2022/08/11 11:08:51;;;;;;;2.85;1.20;;;29.40;64.80;;;;;;5027289;28;20056;-66
2022/08/11 11:10:58;;;;;;;2.88;1.40;;;29.50;63.40;;;;;;5038702;28;20133;-65
2022/08/11 11:18:55;;;;;;;1.67;1.20;;;29.80;61.00;;;;;;5047007;28;20049;-65
2022/08/11 11:21:22;;;;;;;1.40;1.30;;;29.80;65.70;;;;;;5029856;28;20071;-65
2022/08/11 11:24:03;;;;;;;3.35;1.40;;;29.80;63.40;;;;;;5044700;28;20044;-65
2022/08/11 11:27:14;;;;;;;2.63;1.38;;;30.00;65.60;;;;;;5037298;28;20059;-65
2022/08/11 11:30:03;;;;;;;2.60;1.20;;;29.70;59.50;;;;;;5014566;28;20475;-66
2022/08/11 11:32:50;;;;;;;1.83;1.10;;;29.90;65.00;;;;;;5037765;28;20057;-65
2022/08/11 11:35:25;;;;;;;2.67;1.20;;;30.00;61.40;;;;;;5023852;28;20380;-65
2022/08/11 11:37:52;;;;;;;5.80;1.40;;;30.10;61.50;;;;;;5046300;28;20064;-65
2022/08/11 11:40:21;;;;;;;3.30;1.10;;;30.00;62.60;;;;;;5036207;28;20104;-65
2022/08/11 11:42:49;;;;;;;1.98;1.30;;;29.90;60.90;;;;;;5042866;28;20045;-65
2022/08/11 11:45:19;;;;;;;1.88;1.10;;;29.60;59.60;;;;;;5044627;28;20059;-65
2022/08/11 11:47:51;;;;;;;1.40;1.30;;;29.80;63.10;;;;;;5023740;28;20052;-65
2022/08/11 11:50:28;;;;;;;1.15;0.90;;;30.00;63.60;;;;;;5035438;28;20494;-65
2022/08/11 11:52:54;;;;;;;1.80;1.08;;;30.10;64.90;;;;;;5026443;28;20402;-65
2022/08/11 11:55:25;;;;;;;4.63;1.40;;;30.20;63.80;;;;;;5032675;28;20533;-65
2022/08/11 12:03:25;;;;;;;1.95;1.30;;;30.30;61.10;;;;;;5050723;28;20041;-65
2022/08/11 12:05:52;;;;;;;2.67;1.10;;;30.20;62.60;;;;;;5022881;28;20049;-65
2022/08/11 12:08:20;;;;;;;2.45;1.10;;;30.20;60.90;;;;;;5016044;28;20037;-65
2022/08/11 12:13:50;;;;;;;1.85;1.10;;;30.50;63.00;;;;;;5038583;28;20052;-65
2022/08/11 12:16:18;;;;;;;3.35;1.30;;;30.40;61.20;;;;;;5037609;28;20045;-65
2022/08/11 12:18:46;;;;;;;3.10;1.05;;;30.50;58.90;;;;;;5040686;28;20049;-65
2022/08/11 12:21:14;;;;;;;3.03;1.20;;;30.20;56.50;;;;;;5021619;28;20041;-65
2022/08/11 12:29:12;;;;;;;2.13;1.20;;;30.00;55.60;;;;;;5050118;28;20073;-65
2022/08/11 12:31:40;;;;;;;2.78;1.20;;;30.20;60.50;;;;;;5025699;28;20622;-65
2022/08/11 12:34:14;;;;;;;1.77;1.17;;;30.20;55.70;;;;;;5013805;28;20069;-65
2022/08/11 12:37:01;;;;;;;2.03;0.95;;;30.50;60.00;;;;;;5048609;28;20053;-66
2022/08/11 12:53:43;;;;;;;2.97;1.17;;;30.60;61.00;;;;;;4981923;28;20076;-65
2022/08/11 13:07:12;;;;;;;2.15;1.20;;;30.30;54.80;;;;;;5032771;28;20481;-65
2022/08/11 13:09:38;;;;;;;4.25;1.45;;;30.50;60.70;;;;;;5034618;28;20131;-65
2022/08/11 13:14:50;;;;;;;1.55;1.10;;;30.70;58.10;;;;;;5043713;28;20423;-65
2022/08/11 13:17:21;;;;;;;1.40;1.30;;;30.90;62.70;;;;;;5035056;28;20055;-65
2022/08/11 13:19:48;;;;;;;1.90;1.27;;;30.90;59.70;;;;;;5048664;28;20445;-65
2022/08/11 13:22:20;;;;;;;2.17;1.10;;;31.10;61.90;;;;;;5048807;28;20048;-65
2022/08/11 13:24:47;;;;;;;3.28;1.27;;;30.60;54.20;;;;;;5046161;28;20049;-65
2022/08/11 13:27:17;;;;;;;3.15;1.13;;;30.80;58.60;;;;;;5025929;28;20041;-65
2022/08/11 13:29:45;;;;;;;2.25;1.20;;;31.00;61.40;;;;;;5038000;28;20050;-65
2022/08/11 13:32:12;;;;;;;3.85;1.30;;;31.10;62.50;;;;;;5045863;28;20049;-65
2022/08/11 13:34:41;;;;;;;2.42;1.23;;;31.10;59.70;;;;;;5038658;28;20043;-65
2022/08/11 13:37:09;;;;;;;2.92;1.17;;;31.20;61.60;;;;;;5051249;28;20044;-65
2022/08/11 13:39:35;;;;;;;1.20;1.10;;;31.10;59.20;;;;;;5040441;28;20125;-65
2022/08/11 13:42:03;;;;;;;2.33;1.10;;;31.10;58.10;;;;;;5026867;28;20036;-65
2022/08/11 13:44:32;;;;;;;2.45;1.13;;;31.10;57.70;;;;;;5046603;28;20040;-65
2022/08/11 13:47:01;;;;;;;4.85;1.13;;;31.10;60.20;;;;;;5033685;28;20483;-66
2022/08/11 13:49:28;;;;;;;2.33;1.23;;;31.10;58.40;;;;;;5026591;28;20087;-65
2022/08/11 13:51:54;;;;;;;3.30;1.00;;;31.00;59.40;;;;;;5041210;28;20072;-66
2022/08/11 13:54:27;;;;;;;1.58;1.10;;;31.10;57.30;;;;;;5045402;28;20580;-66
2022/08/11 13:56:55;;;;;;;1.13;1.00;;;30.70;52.80;;;;;;5042968;28;20041;-65
2022/08/11 13:59:22;;;;;;;3.00;1.23;;;30.60;54.30;;;;;;5028904;28;20124;-65
2022/08/11 14:01:54;;;;;;;1.10;1.10;;;30.70;55.30;;;;;;5044633;28;20052;-65
2022/08/11 14:04:38;;;;;;;2.00;1.02;;;30.90;60.20;;;;;;5045666;28;20386;-65
2022/08/11 14:07:07;;;;;;;2.58;1.20;;;31.00;56.80;;;;;;5037787;28;20049;-65
2022/08/11 14:09:40;;;;;;;1.67;1.30;;;30.80;55.30;;;;;;5050741;28;20116;-65
2022/08/11 14:15:02;;;;;;;2.55;1.13;;;30.70;55.00;;;;;;5028074;28;20049;-65
2022/08/11 14:17:32;;;;;;;1.65;1.05;;;30.70;55.70;;;;;;5023343;28;20037;-65
2022/08/11 14:20:03;;;;;;;1.90;1.30;;;30.80;60.10;;;;;;5038511;28;20041;-65
2022/08/11 14:22:31;;;;;;;1.52;1.23;;;30.80;59.20;;;;;;5038034;28;20036;-65
2022/08/11 14:24:57;;;;;;;2.40;1.10;;;30.80;56.60;;;;;;5014612;28;20051;-65
2022/08/11 14:27:29;;;;;;;3.28;1.00;;;31.00;60.60;;;;;;5011107;28;20039;-65
2022/08/11 14:29:57;;;;;;;2.47;1.38;;;31.10;60.30;;;;;;5035566;28;20052;-65
2022/08/11 14:32:24;;;;;;;2.53;1.30;;;31.00;57.30;;;;;;5023770;28;20107;-65
2022/08/11 14:34:50;;;;;;;2.05;1.02;;;31.00;55.90;;;;;;5048741;28;20386;-65
2022/08/11 14:37:22;;;;;;;3.88;1.40;;;30.90;55.20;;;;;;5044959;28;20658;-65
2022/08/11 14:39:58;;;;;;;2.50;1.38;;;30.70;55.30;;;;;;5052791;28;20052;-65
2022/08/11 14:48:03;;;;;;;2.30;1.17;;;30.70;57.90;;;;;;5048068;28;20474;-65
2022/08/11 14:50:32;;;;;;;2.40;1.20;;;30.80;59.70;;;;;;5050154;28;20033;-65
2022/08/11 14:53:03;;;;;;;1.63;1.25;;;30.60;56.50;;;;;;5021210;28;20410;-65
2022/08/11 14:58:22;;;;;;;2.50;1.33;;;30.70;58.30;;;;;;5033289;28;20140;-65
2022/08/11 15:00:53;;;;;;;2.55;1.10;;;30.80;59.70;;;;;;5043248;28;20124;-65
2022/08/11 15:03:19;;;;;;;;;;;31.00;59.10;;;;;;5025069;28;20089;-65
2022/08/11 15:05:48;;;;;;;1.65;1.00;;;30.80;54.50;;;;;;5041364;28;21218;-65
2022/08/11 15:08:15;;;;;;;2.38;1.38;;;30.60;57.40;;;;;;5047407;28;20033;-65
2022/08/11 15:10:41;;;;;;;2.35;1.30;;;30.50;56.80;;;;;;5028243;28;20049;-65
2022/08/11 15:13:09;;;;;;;2.83;1.30;;;30.60;59.90;;;;;;5041384;28;20037;-65
2022/08/11 15:18:25;;;;;;;4.68;1.45;;;30.50;57.70;;;;;;5040899;28;20049;-65
2022/08/11 15:37:42;;;;;;;4.63;1.20;;;29.70;59.40;;;;;;5047465;28;20558;-65
2022/08/11 15:46:34;;;;;;;2.30;1.00;;;29.90;60.10;;;;;;5016382;28;20041;-65
2022/08/11 15:49:25;;;;;;;3.83;1.33;;;30.00;62.20;;;;;;5026797;28;20072;-65
2022/08/11 15:52:06;;;;;;;2.45;1.52;;;29.70;59.90;;;;;;5037903;28;20600;-66
2022/08/11 15:54:33;;;;;;;2.08;1.10;;;29.60;59.80;;;;;;5002512;28;20096;-65
2022/08/11 15:57:03;;;;;;;2.75;1.00;;;29.50;59.90;;;;;;5000375;28;20048;-66
2022/08/11 16:05:12;;;;;;;3.47;1.13;;;29.60;59.90;;;;;;5000474;28;20042;-65
2022/08/11 16:07:41;;;;;;;1.73;1.35;;;29.40;60.10;;;;;;4990953;28;20046;-66
2022/08/11 16:10:20;;;;;;;1.58;1.27;;;29.40;59.60;;;;;;5004883;28;20421;-66
2022/08/11 16:18:24;;;;;;;2.13;1.40;;;29.30;61.70;;;;;;5002943;28;20053;-66
2022/08/11 16:20:54;;;;;;;1.83;1.20;;;29.40;62.00;;;;;;5002211;28;20092;-66
2022/08/11 16:23:25;;;;;;;2.15;1.20;;;29.40;62.30;;;;;;5006349;28;20033;-66
2022/08/11 16:25:52;;;;;;;3.42;1.63;;;29.30;62.70;;;;;;5003755;28;20365;-66
2022/08/11 16:28:20;;;;;;;2.15;1.30;;;29.20;63.30;;;;;;4996683;28;20165;-66
2022/08/11 16:30:47;;;;;;;2.20;1.40;;;29.20;64.30;;;;;;5004000;28;20511;-66
2022/08/11 16:33:14;;;;;;;2.80;1.45;;;29.10;64.80;;;;;;4998423;28;20050;-66
2022/08/11 16:38:34;;;;;;;4.32;2.00;;;29.10;65.20;;;;;;5010090;28;20054;-65
2022/08/11 16:41:08;;;;;;;2.83;1.52;;;29.00;65.70;;;;;;5004025;28;20089;-65
2022/08/11 16:49:20;;;;;;;3.22;1.60;;;29.10;66.40;;;;;;5003646;28;20045;-66
2022/08/11 16:51:46;;;;;;;3.65;1.50;;;29.00;65.70;;;;;;5009296;28;20038;-66
2022/08/11 16:54:13;;;;;;;2.10;1.42;;;28.90;66.00;;;;;;5019947;28;20054;-65
2022/08/11 16:56:50;;;;;;;2.35;1.42;;;28.80;65.60;;;;;;5021450;28;20674;-66
2022/08/11 16:59:23;;;;;;;2.38;1.17;;;28.80;66.00;;;;;;5029746;28;20065;-66
2022/08/11 17:01:56;;;;;;;4.40;1.80;;;28.60;66.80;;;;;;5020818;28;20037;-66
2022/08/11 17:13:11;;;;;;;3.40;1.40;;;28.30;67.00;;;;;;5065137;28;20086;-72
2022/08/11 17:18:39;;;;;;;5.68;1.77;;;28.20;68.50;;;;;;5067180;28;20048;-72
2022/08/11 17:21:11;;;;;;;2.15;1.42;;;28.30;68.80;;;;;;5067786;28;20041;-73
2022/08/11 17:23:49;;;;;;;7.32;1.50;;;28.40;69.90;;;;;;5054115;28;20044;-73
2022/08/11 17:26:57;;;;;;;3.10;1.50;;;28.40;69.80;;;;;;5052547;28;20124;-72
2022/08/11 17:29:31;;;;;;;2.40;1.40;;;28.20;68.90;;;;;;5061604;28;20068;-72
2022/08/11 17:37:37;;;;;;;6.10;1.60;;;27.90;70.50;;;;;;5070273;28;20048;-73
2022/08/11 17:40:06;;;;;;;7.65;1.70;;;27.90;71.60;;;;;;5058771;28;20056;-72
2022/08/11 17:51:06;;;;;;;4.57;1.60;;;27.60;71.80;;;;;;5070570;28;20052;-73
2022/08/11 18:03:27;;;;;;;3.58;1.30;;;27.30;73.10;;;;;;5065291;28;20059;-73
2022/08/11 18:04:42;;;;;;;2.72;1.63;;;27.20;73.70;;;;;;5064608;28;20040;-72
